Time;durP1;ratioP1;P1;durP2;ratioP2;P2;SDS_P1;SDS_P2;PMS_P1;PMS_P2;Temp;Humidity;BMP_temperature;BMP_pressure;BME280_temperature;BME280_humidity;BME280_pressure;Samples;Min_cycle;Max_cycle;Signal;HPM_P1;HPM_P2
2022/03/24 00:00:49;;;;;;;15.07;3.25;;;;;;;;;;5026809;28;20096;-44
2022/03/24 00:03:17;;;;;;;8.13;3.00;;;;;;;;;;4993140;28;20050;-44
2022/03/24 00:05:44;;;;;;;19.38;3.35;;;;;;;;;;5018427;28;20032;-43
2022/03/24 00:08:12;;;;;;;9.10;2.88;;;;;;;;;;5033880;28;20034;-42
2022/03/24 00:10:39;;;;;;;13.65;3.30;;;;;;;;;;5018407;28;20062;-45
2022/03/24 00:13:07;;;;;;;19.13;3.60;;;;;;;;;;5009320;28;20056;-43
2022/03/24 00:15:34;;;;;;;10.27;3.75;;;;;;;;;;5009388;28;20026;-44
2022/03/24 00:18:01;;;;;;;15.85;3.70;;;;;;;;;;5030839;28;20033;-45
2022/03/24 00:20:28;;;;;;;19.27;5.60;;;;;;;;;;5052422;28;20029;-43
2022/03/24 00:22:55;;;;;;;19.50;5.80;;;;;;;;;;5044312;28;20064;-43
2022/03/24 00:25:24;;;;;;;19.52;5.60;;;;;;;;;;5027393;28;20467;-44
2022/03/24 00:27:51;;;;;;;30.67;7.20;;;;;;;;;;5024240;28;20034;-43
2022/03/24 00:30:18;;;;;;;27.73;7.22;;;;;;;;;;5020700;28;20037;-44
2022/03/24 00:32:45;;;;;;;31.92;8.07;;;;;;;;;;5014151;28;20038;-44
2022/03/24 00:35:12;;;;;;;40.40;8.88;;;;;;;;;;5013858;28;20056;-49
2022/03/24 00:37:39;;;;;;;34.58;9.48;;;;;;;;;;5013824;28;20113;-45
2022/03/24 00:40:07;;;;;;;40.15;9.02;;;;;;;;;;5013767;28;20057;-42
2022/03/24 00:42:37;;;;;;;33.40;10.10;;;;;;;;;;5013748;28;20028;-43
2022/03/24 00:45:12;;;;;;;36.97;10.18;;;;;;;;;;5013966;28;20029;-44
2022/03/24 00:47:40;;;;;;;46.63;10.77;;;;;;;;;;5013936;28;20048;-44
2022/03/24 00:50:07;;;;;;;35.38;9.50;;;;;;;;;;5013474;28;20072;-44
2022/03/24 00:52:40;;;;;;;37.55;9.80;;;;;;;;;;5013826;28;20041;-44
2022/03/24 00:55:18;;;;;;;32.83;9.48;;;;;;;;;;5013508;28;20041;-44
2022/03/24 00:57:46;;;;;;;28.10;8.93;;;;;;;;;;5013559;28;20026;-44
2022/03/24 01:00:15;;;;;;;34.10;9.40;;;;;;;;;;5013410;28;20085;-44
2022/03/24 01:02:43;;;;;;;27.98;8.75;;;;;;;;;;5013115;28;20065;-44
2022/03/24 01:05:12;;;;;;;33.63;9.25;;;;;;;;;;5013335;28;20037;-44
2022/03/24 01:07:39;;;;;;;30.40;8.13;;;;;;;;;;5013399;28;20034;-44
2022/03/24 01:10:07;;;;;;;28.83;8.27;;;;;;;;;;5025581;28;20031;-44
2022/03/24 01:12:34;;;;;;;28.63;8.23;;;;;;;;;;5032990;28;20084;-45
2022/03/24 01:15:04;;;;;;;23.25;7.25;;;;;;;;;;5032834;28;20124;-45
2022/03/24 01:17:32;;;;;;;27.73;7.97;;;;;;;;;;5033144;28;20026;-43
2022/03/24 01:19:59;;;;;;;27.73;8.93;;;;;;;;;;5032544;28;20021;-43
2022/03/24 01:22:25;;;;;;;25.25;7.20;;;;;;;;;;5032962;28;20447;-43
2022/03/24 01:24:52;;;;;;;24.60;7.82;;;;;;;;;;5032541;28;20025;-45
2022/03/24 01:27:20;;;;;;;24.90;7.45;;;;;;;;;;5033050;28;20567;-44
2022/03/24 01:29:46;;;;;;;26.10;7.30;;;;;;;;;;5009007;28;20037;-45
2022/03/24 01:32:18;;;;;;;28.35;7.25;;;;;;;;;;5015338;28;20026;-45
2022/03/24 01:34:52;;;;;;;21.55;6.78;;;;;;;;;;5002968;28;20041;-45
2022/03/24 01:37:25;;;;;;;20.20;6.22;;;;;;;;;;5006339;28;20030;-46
2022/03/24 01:39:54;;;;;;;18.88;5.85;;;;;;;;;;5021946;28;20033;-44
2022/03/24 01:42:23;;;;;;;19.45;6.05;;;;;;;;;;5007733;28;20037;-46
2022/03/24 01:44:50;;;;;;;18.67;5.72;;;;;;;;;;5024187;28;20495;-44
2022/03/24 01:47:18;;;;;;;22.67;6.10;;;;;;;;;;5006450;28;20084;-44
2022/03/24 01:49:49;;;;;;;20.40;6.05;;;;;;;;;;5028995;28;20116;-45
2022/03/24 01:52:18;;;;;;;19.10;6.13;;;;;;;;;;5022424;28;20076;-44
2022/03/24 01:54:47;;;;;;;16.40;5.50;;;;;;;;;;5025159;28;20033;-46
2022/03/24 01:57:15;;;;;;;19.08;5.95;;;;;;;;;;5020035;28;20542;-45
2022/03/24 01:59:42;;;;;;;14.63;5.57;;;;;;;;;;5020265;28;20076;-46
2022/03/24 02:02:10;;;;;;;17.88;6.00;;;;;;;;;;5018948;28;20487;-46
2022/03/24 02:04:38;;;;;;;16.60;5.40;;;;;;;;;;5020455;28;20045;-44
2022/03/24 02:07:09;;;;;;;18.33;6.10;;;;;;;;;;5019518;28;20036;-46
2022/03/24 02:09:36;;;;;;;18.15;5.72;;;;;;;;;;5024201;28;20100;-44
2022/03/24 02:12:10;;;;;;;13.10;5.47;;;;;;;;;;5026554;28;20021;-43
2022/03/24 02:14:38;;;;;;;16.63;5.65;;;;;;;;;;5016812;28;20025;-44
2022/03/24 02:17:06;;;;;;;12.45;4.60;;;;;;;;;;5022179;28;20079;-44
2022/03/24 02:19:36;;;;;;;19.35;5.10;;;;;;;;;;5020633;28;20121;-45
2022/03/24 02:22:18;;;;;;;14.48;4.50;;;;;;;;;;5021339;28;20052;-42
2022/03/24 02:24:48;;;;;;;14.93;5.72;;;;;;;;;;5019924;28;20121;-47
2022/03/24 02:27:19;;;;;;;18.58;5.13;;;;;;;;;;4996713;28;20034;-44
2022/03/24 02:29:47;;;;;;;11.95;5.18;;;;;;;;;;5008733;28;20184;-45
2022/03/24 02:32:20;;;;;;;12.23;4.40;;;;;;;;;;5018375;28;20119;-45
2022/03/24 02:34:52;;;;;;;9.85;4.25;;;;;;;;;;5018756;28;20041;-43
2022/03/24 02:37:20;;;;;;;13.85;5.18;;;;;;;;;;5017152;28;20147;-44
2022/03/24 02:39:55;;;;;;;13.02;4.75;;;;;;;;;;5001610;28;20041;-45
2022/03/24 02:42:24;;;;;;;13.85;5.07;;;;;;;;;;5019350;28;20025;-48
2022/03/24 02:44:55;;;;;;;15.75;4.88;;;;;;;;;;5022980;28;20108;-45
2022/03/24 02:47:23;;;;;;;14.27;4.73;;;;;;;;;;5022057;28;20022;-45
2022/03/24 02:49:54;;;;;;;12.70;4.05;;;;;;;;;;4994102;28;20841;-47
2022/03/24 02:52:25;;;;;;;14.25;4.95;;;;;;;;;;5021419;28;20049;-47
2022/03/24 02:54:52;;;;;;;11.23;4.00;;;;;;;;;;4994042;28;20472;-47
2022/03/24 02:57:19;;;;;;;12.57;4.38;;;;;;;;;;5011444;28;20032;-44
2022/03/24 02:59:46;;;;;;;9.63;4.25;;;;;;;;;;5019099;28;20025;-45
2022/03/24 03:02:15;;;;;;;13.10;5.10;;;;;;;;;;5007744;28;20045;-44
2022/03/24 03:04:43;;;;;;;10.48;4.40;;;;;;;;;;5023048;28;20036;-43
2022/03/24 03:07:11;;;;;;;11.68;4.15;;;;;;;;;;5021830;28;20080;-45
2022/03/24 03:09:39;;;;;;;12.15;4.45;;;;;;;;;;5019544;28;20026;-45
2022/03/24 03:12:08;;;;;;;9.05;3.40;;;;;;;;;;5011189;28;20021;-44
2022/03/24 03:14:35;;;;;;;9.20;3.55;;;;;;;;;;5012553;28;20096;-44
2022/03/24 03:17:02;;;;;;;10.88;3.72;;;;;;;;;;5012367;28;20029;-43
2022/03/24 03:19:30;;;;;;;13.93;3.75;;;;;;;;;;5012439;28;20025;-45
2022/03/24 03:21:57;;;;;;;16.52;3.38;;;;;;;;;;5012344;28;20558;-45
2022/03/24 03:24:24;;;;;;;14.30;3.80;;;;;;;;;;5012437;28;20037;-43
2022/03/24 03:26:55;;;;;;;8.48;3.58;;;;;;;;;;5012581;28;20033;-43
2022/03/24 03:29:22;;;;;;;8.63;3.58;;;;;;;;;;5012203;28;20571;-43
2022/03/24 03:31:50;;;;;;;10.32;3.92;;;;;;;;;;5012505;28;20068;-43
2022/03/24 03:34:17;;;;;;;9.10;3.63;;;;;;;;;;5012510;28;20014;-43
2022/03/24 03:36:44;;;;;;;10.20;3.70;;;;;;;;;;5012550;28;20056;-43
2022/03/24 03:39:11;;;;;;;13.85;3.47;;;;;;;;;;5012248;28;20494;-43
2022/03/24 03:41:39;;;;;;;11.90;3.53;;;;;;;;;;5011966;28;20030;-43
2022/03/24 03:44:07;;;;;;;7.65;3.38;;;;;;;;;;5012379;28;20033;-43
2022/03/24 03:46:34;;;;;;;11.55;3.53;;;;;;;;;;5012319;28;20025;-43
2022/03/24 03:49:01;;;;;;;11.05;3.88;;;;;;;;;;5012236;28;20018;-43
2022/03/24 03:51:29;;;;;;;10.75;4.53;;;;;;;;;;5012084;28;20807;-43
2022/03/24 03:53:57;;;;;;;10.30;4.03;;;;;;;;;;5014875;28;20053;-43
2022/03/24 03:56:24;;;;;;;9.50;3.83;;;;;;;;;;5016251;28;20018;-43
2022/03/24 03:58:51;;;;;;;8.55;3.63;;;;;;;;;;5016169;28;20472;-43
2022/03/24 04:01:18;;;;;;;8.98;3.08;;;;;;;;;;5015203;28;20523;-43
2022/03/24 04:03:45;;;;;;;12.52;3.83;;;;;;;;;;5015926;28;20106;-43
2022/03/24 04:06:13;;;;;;;8.35;3.58;;;;;;;;;;5016039;28;20018;-44
2022/03/24 04:08:40;;;;;;;9.30;3.40;;;;;;;;;;5014782;28;20361;-44
2022/03/24 04:11:08;;;;;;;5.18;2.72;;;;;;;;;;5016037;28;20021;-44
2022/03/24 04:13:35;;;;;;;7.07;2.92;;;;;;;;;;5015995;28;20030;-44
2022/03/24 04:16:03;;;;;;;6.45;3.15;;;;;;;;;;5014419;28;20045;-45
2022/03/24 04:18:30;;;;;;;6.50;2.53;;;;;;;;;;5015842;28;20057;-44
2022/03/24 04:20:57;;;;;;;5.38;2.45;;;;;;;;;;5015764;28;20062;-45
2022/03/24 04:23:24;;;;;;;7.00;2.80;;;;;;;;;;5015598;28;20396;-44
2022/03/24 04:25:51;;;;;;;4.47;2.50;;;;;;;;;;5015627;28;20022;-44
2022/03/24 04:28:18;;;;;;;12.38;3.22;;;;;;;;;;5015621;28;20014;-44
2022/03/24 04:30:45;;;;;;;6.95;2.72;;;;;;;;;;5015528;28;20033;-44
2022/03/24 04:33:12;;;;;;;6.30;2.38;;;;;;;;;;5015616;28;20030;-45
2022/03/24 04:35:39;;;;;;;5.68;2.50;;;;;;;;;;5015671;28;20026;-45
2022/03/24 04:38:08;;;;;;;4.97;2.58;;;;;;;;;;5015262;28;20503;-45
2022/03/24 04:40:35;;;;;;;6.22;2.70;;;;;;;;;;5015391;28;20042;-45
2022/03/24 04:43:04;;;;;;;6.63;2.05;;;;;;;;;;5015468;28;20480;-45
2022/03/24 04:45:33;;;;;;;6.13;2.00;;;;;;;;;;5015313;28;20388;-45
2022/03/24 04:48:01;;;;;;;4.75;2.00;;;;;;;;;;5013749;28;20387;-45
2022/03/24 04:50:29;;;;;;;6.88;2.50;;;;;;;;;;5015339;28;20022;-45
2022/03/24 04:52:56;;;;;;;3.15;1.60;;;;;;;;;;5015111;28;20026;-45
2022/03/24 04:55:24;;;;;;;6.43;2.03;;;;;;;;;;5015257;28;20018;-45
2022/03/24 04:57:51;;;;;;;5.45;1.50;;;;;;;;;;5015031;28;20021;-45
2022/03/24 05:00:18;;;;;;;4.88;2.15;;;;;;;;;;5014989;28;20084;-45
2022/03/24 05:02:49;;;;;;;8.60;1.92;;;;;;;;;;5029443;28;20115;-45
2022/03/24 05:05:16;;;;;;;5.68;1.60;;;;;;;;;;5033838;28;20026;-45
2022/03/24 05:07:43;;;;;;;5.35;1.85;;;;;;;;;;5034544;28;20032;-43
2022/03/24 05:10:11;;;;;;;4.10;1.50;;;;;;;;;;5034814;28;20076;-45
2022/03/24 05:12:42;;;;;;;6.05;1.60;;;;;;;;;;5034654;28;20025;-45
2022/03/24 05:15:09;;;;;;;4.72;1.40;;;;;;;;;;5034709;28;20025;-45
2022/03/24 05:17:37;;;;;;;5.90;1.67;;;;;;;;;;5034612;28;20021;-45
2022/03/24 05:20:05;;;;;;;7.18;1.67;;;;;;;;;;5034659;28;20017;-45
2022/03/24 05:22:32;;;;;;;6.68;1.45;;;;;;;;;;5034517;28;20029;-45
2022/03/24 05:24:59;;;;;;;4.22;1.40;;;;;;;;;;5034514;28;20502;-45
2022/03/24 05:27:26;;;;;;;4.53;1.45;;;;;;;;;;5034246;28;20574;-45
2022/03/24 05:29:53;;;;;;;7.05;1.58;;;;;;;;;;5034322;28;20049;-45
2022/03/24 05:32:20;;;;;;;6.68;1.52;;;;;;;;;;5034079;28;20549;-45
2022/03/24 05:34:48;;;;;;;5.13;1.35;;;;;;;;;;5034153;28;20029;-45
2022/03/24 05:37:16;;;;;;;4.53;1.88;;;;;;;;;;5034046;28;20041;-45
2022/03/24 05:39:43;;;;;;;7.38;1.65;;;;;;;;;;5034005;28;20057;-45
2022/03/24 05:42:10;;;;;;;5.45;1.58;;;;;;;;;;5033876;28;20487;-45
2022/03/24 05:44:37;;;;;;;6.05;1.33;;;;;;;;;;5033741;28;20037;-45
2022/03/24 05:47:04;;;;;;;4.32;1.42;;;;;;;;;;5033831;28;20049;-45
2022/03/24 05:49:31;;;;;;;3.50;1.20;;;;;;;;;;5033930;28;20037;-45
2022/03/24 05:51:58;;;;;;;4.57;1.70;;;;;;;;;;5033988;28;20112;-45
2022/03/24 05:54:25;;;;;;;6.70;1.30;;;;;;;;;;5033980;28;20018;-44
2022/03/24 05:56:53;;;;;;;4.80;1.30;;;;;;;;;;5033894;28;20029;-45
2022/03/24 05:59:20;;;;;;;3.88;1.55;;;;;;;;;;5033851;28;20026;-45
2022/03/24 06:01:47;;;;;;;4.03;1.00;;;;;;;;;;5033561;28;20104;-45
2022/03/24 06:04:15;;;;;;;3.38;1.30;;;;;;;;;;5033782;28;20026;-45
2022/03/24 06:06:43;;;;;;;6.75;1.40;;;;;;;;;;5033598;28;20041;-45
2022/03/24 06:09:10;;;;;;;5.72;1.30;;;;;;;;;;5033428;28;20128;-45
2022/03/24 06:11:38;;;;;;;4.07;1.60;;;;;;;;;;5033625;28;20064;-45
2022/03/24 06:14:12;;;;;;;4.22;1.23;;;;;;;;;;5033438;28;20554;-45
2022/03/24 06:16:43;;;;;;;9.40;1.67;;;;;;;;;;5033274;28;20084;-43
2022/03/24 06:19:10;;;;;;;2.50;0.90;;;;;;;;;;5033434;28;20483;-45
2022/03/24 06:21:38;;;;;;;3.80;1.00;;;;;;;;;;5033367;28;20092;-45
2022/03/24 06:24:06;;;;;;;4.70;0.93;;;;;;;;;;5033416;28;20044;-45
2022/03/24 06:26:33;;;;;;;5.72;1.20;;;;;;;;;;5033374;28;20101;-45
2022/03/24 06:29:01;;;;;;;2.85;1.17;;;;;;;;;;5033279;28;20049;-45
2022/03/24 06:31:29;;;;;;;8.52;1.67;;;;;;;;;;5033142;28;20041;-45
2022/03/24 06:33:56;;;;;;;8.45;1.20;;;;;;;;;;5033097;28;20061;-45
2022/03/24 06:36:23;;;;;;;8.65;1.20;;;;;;;;;;5033166;28;20129;-45
2022/03/24 06:38:50;;;;;;;4.65;1.80;;;;;;;;;;5033026;28;20030;-45
2022/03/24 06:41:17;;;;;;;5.75;1.25;;;;;;;;;;5032961;28;20498;-45
2022/03/24 06:43:46;;;;;;;5.20;1.15;;;;;;;;;;5032904;28;20033;-45
2022/03/24 06:46:14;;;;;;;5.43;1.27;;;;;;;;;;5032783;28;20045;-45
2022/03/24 06:48:41;;;;;;;3.25;1.08;;;;;;;;;;5032766;28;20029;-45
2022/03/24 06:51:08;;;;;;;3.13;1.00;;;;;;;;;;5032901;28;20029;-45
2022/03/24 06:53:35;;;;;;;4.72;1.27;;;;;;;;;;5032826;28;20025;-45
2022/03/24 06:56:02;;;;;;;3.63;1.20;;;;;;;;;;5032759;28;20053;-45
2022/03/24 06:58:29;;;;;;;2.65;1.05;;;;;;;;;;5032643;28;20033;-45
2022/03/24 07:00:56;;;;;;;4.38;1.27;;;;;;;;;;5032663;28;20072;-45
2022/03/24 07:03:23;;;;;;;2.13;0.90;;;;;;;;;;5032545;28;20096;-45
2022/03/24 07:05:50;;;;;;;4.13;1.25;;;;;;;;;;5032714;28;20105;-45
2022/03/24 07:08:17;;;;;;;3.25;1.08;;;;;;;;;;5032504;28;20022;-44
2022/03/24 07:10:44;;;;;;;2.05;0.80;;;;;;;;;;5032648;28;20025;-45
2022/03/24 07:13:11;;;;;;;3.92;0.90;;;;;;;;;;5032589;28;20024;-44
2022/03/24 07:15:38;;;;;;;2.72;0.82;;;;;;;;;;5032417;28;20025;-45
2022/03/24 07:18:05;;;;;;;4.70;1.02;;;;;;;;;;5032222;28;20407;-44
2022/03/24 07:20:34;;;;;;;2.75;1.00;;;;;;;;;;5032279;28;20073;-45
2022/03/24 07:23:03;;;;;;;5.13;0.90;;;;;;;;;;5032376;28;20503;-45
2022/03/24 07:25:31;;;;;;;2.05;0.90;;;;;;;;;;5032615;28;20037;-45
2022/03/24 07:27:58;;;;;;;2.85;0.80;;;;;;;;;;5031835;28;20392;-45
2022/03/24 07:30:25;;;;;;;2.22;0.88;;;;;;;;;;5032414;28;20116;-45
2022/03/24 07:32:54;;;;;;;2.13;0.93;;;;;;;;;;5032347;28;20021;-45
2022/03/24 07:35:24;;;;;;;3.35;0.98;;;;;;;;;;5032358;28;20531;-45
2022/03/24 07:37:51;;;;;;;2.00;0.95;;;;;;;;;;5032006;28;20069;-45
2022/03/24 07:40:18;;;;;;;2.95;0.80;;;;;;;;;;5031937;28;20091;-45
2022/03/24 07:42:46;;;;;;;2.80;0.70;;;;;;;;;;5032243;28;20112;-45
2022/03/24 07:45:13;;;;;;;1.75;0.68;;;;;;;;;;5032262;28;20025;-45
2022/03/24 07:47:58;;;;;;;1.65;0.77;;;;;;;;;;5031936;28;20411;-45
2022/03/24 07:50:25;;;;;;;3.25;0.77;;;;;;;;;;5032150;28;20025;-45
2022/03/24 07:52:52;;;;;;;2.15;0.80;;;;;;;;;;5030456;28;20108;-45
2022/03/24 07:55:19;;;;;;;0.90;0.70;;;;;;;;;;5010861;28;20033;-45
2022/03/24 07:57:46;;;;;;;2.95;0.90;;;;;;;;;;5029538;28;20036;-43
2022/03/24 08:00:13;;;;;;;1.35;0.77;;;;;;;;;;5029792;28;20500;-45
2022/03/24 08:02:44;;;;;;;1.90;0.70;;;;;;;;;;5030858;28;20073;-45
2022/03/24 08:05:11;;;;;;;3.70;0.75;;;;;;;;;;5031007;28;20038;-45
2022/03/24 08:07:38;;;;;;;2.22;0.82;;;;;;;;;;5031255;28;20045;-45
2022/03/24 08:10:08;;;;;;;1.85;0.40;;;;;;;;;;5031714;28;20108;-45
2022/03/24 08:12:34;;;;;;;2.67;0.88;;;;;;;;;;5031607;28;20033;-45
2022/03/24 08:15:02;;;;;;;1.58;0.60;;;;;;;;;;5031726;28;20026;-45
2022/03/24 08:17:29;;;;;;;1.42;0.80;;;;;;;;;;5031599;28;20028;-45
2022/03/24 08:19:59;;;;;;;1.35;0.88;;;;;;;;;;5031645;28;20026;-45
2022/03/24 08:22:26;;;;;;;1.63;0.70;;;;;;;;;;5031651;28;20029;-45
2022/03/24 08:24:52;;;;;;;4.05;0.73;;;;;;;;;;5031532;28;20029;-45
2022/03/24 08:27:19;;;;;;;3.22;0.65;;;;;;;;;;5031399;28;20029;-45
2022/03/24 08:29:46;;;;;;;1.60;0.68;;;;;;;;;;5181194;22;20116;-44
2022/03/24 08:32:14;;;;;;;3.40;0.73;;;;;;;;;;5031765;28;20059;-44
2022/03/24 08:34:42;;;;;;;1.77;0.88;;;;;;;;;;5031390;28;20042;-44
2022/03/24 08:37:09;;;;;;;1.42;0.50;;;;;;;;;;5031594;28;20029;-46
2022/03/24 08:39:36;;;;;;;1.42;0.77;;;;;;;;;;5032241;28;20026;-44
2022/03/24 08:42:03;;;;;;;2.75;0.80;;;;;;;;;;5035132;28;20045;-45
2022/03/24 08:44:30;;;;;;;1.15;0.60;;;;;;;;;;5035109;28;20025;-45
2022/03/24 08:46:57;;;;;;;1.40;0.40;;;;;;;;;;5035159;28;20087;-44
2022/03/24 08:49:24;;;;;;;1.38;0.77;;;;;;;;;;5034828;28;20037;-44
2022/03/24 08:51:51;;;;;;;1.05;0.60;;;;;;;;;;5035070;28;20048;-44
2022/03/24 08:54:18;;;;;;;0.60;0.43;;;;;;;;;;5035067;28;20091;-44
2022/03/24 08:56:45;;;;;;;0.50;0.50;;;;;;;;;;5034884;28;20105;-46
2022/03/24 08:59:12;;;;;;;1.10;0.40;;;;;;;;;;5034900;28;20482;-44
2022/03/24 09:01:41;;;;;;;1.10;0.77;;;;;;;;;;5017033;28;20426;-44
2022/03/24 09:04:08;;;;;;;2.30;0.65;;;;;;;;;;5034646;28;20426;-44
2022/03/24 09:06:35;;;;;;;0.82;0.57;;;;;;;;;;5034814;28;20075;-46
2022/03/24 09:09:02;;;;;;;0.85;0.52;;;;;;;;;;5034626;28;20483;-45
2022/03/24 09:11:29;;;;;;;1.85;0.70;;;;;;;;;;5034666;28;20038;-44
2022/03/24 09:13:56;;;;;;;0.93;0.60;;;;;;;;;;5034667;28;20041;-44
2022/03/24 09:16:23;;;;;;;1.13;0.57;;;;;;;;;;5034646;28;20112;-44
2022/03/24 09:18:50;;;;;;;0.80;0.40;;;;;;;;;;5034465;28;20487;-44
2022/03/24 09:21:17;;;;;;;1.85;0.50;;;;;;;;;;5034445;28;20055;-45
2022/03/24 09:23:44;;;;;;;0.70;0.43;;;;;;;;;;5034473;28;20029;-44
2022/03/24 09:26:12;;;;;;;2.45;0.60;;;;;;;;;;5034514;28;20107;-44
2022/03/24 09:28:39;;;;;;;0.40;0.40;;;;;;;;;;5034243;28;20061;-44
2022/03/24 09:31:06;;;;;;;1.70;0.70;;;;;;;;;;5034253;28;20483;-44
2022/03/24 09:33:33;;;;;;;0.93;0.47;;;;;;;;;;5034235;28;20385;-44
2022/03/24 09:36:00;;;;;;;0.80;0.50;;;;;;;;;;5034280;28;20032;-44
2022/03/24 09:38:27;;;;;;;0.77;0.40;;;;;;;;;;5034128;28;20121;-45
2022/03/24 09:40:54;;;;;;;1.17;0.70;;;;;;;;;;5034107;28;20034;-44
2022/03/24 09:43:21;;;;;;;0.73;0.50;;;;;;;;;;5034183;28;20048;-44
2022/03/24 09:45:48;;;;;;;0.90;0.45;;;;;;;;;;5034011;28;20052;-44
2022/03/24 09:48:15;;;;;;;0.73;0.40;;;;;;;;;;5033917;28;20029;-44
2022/03/24 09:50:47;;;;;;;1.75;0.60;;;;;;;;;;5033574;28;20033;-43
2022/03/24 09:53:15;;;;;;;3.20;0.60;;;;;;;;;;5033943;28;20030;-43
2022/03/24 09:55:42;;;;;;;1.35;0.43;;;;;;;;;;5033812;28;20220;-44
2022/03/24 09:58:11;;;;;;;1.17;0.60;;;;;;;;;;5033611;28;20037;-44
2022/03/24 10:00:38;;;;;;;1.10;0.40;;;;;;;;;;5033573;28;20029;-45
2022/03/24 10:03:15;;;;;;;1.42;0.57;;;;;;;;;;5033744;28;20049;-44
2022/03/24 10:05:54;;;;;;;0.70;0.60;;;;;;;;;;5033735;28;20032;-44
2022/03/24 10:08:22;;;;;;;0.85;0.52;;;;;;;;;;5033466;28;20501;-44
2022/03/24 10:10:49;;;;;;;0.65;0.60;;;;;;;;;;5033471;28;20550;-44
2022/03/24 10:13:41;;;;;;;0.88;0.50;;;;;;;;;;5033616;28;20033;-44
2022/03/24 10:16:09;;;;;;;0.55;0.40;;;;;;;;;;5033407;28;20037;-43
2022/03/24 10:18:36;;;;;;;0.70;0.50;;;;;;;;;;5033226;28;20060;-44
2022/03/24 10:21:03;;;;;;;0.88;0.60;;;;;;;;;;5033454;28;20025;-44
2022/03/24 10:23:34;;;;;;;1.02;0.60;;;;;;;;;;5033425;28;20029;-44
2022/03/24 10:26:05;;;;;;;2.47;0.50;;;;;;;;;;5033387;28;20442;-44
2022/03/24 10:28:32;;;;;;;1.00;0.70;;;;;;;;;;5032896;28;20112;-44
2022/03/24 10:30:59;;;;;;;1.50;0.50;;;;;;;;;;5033131;28;20136;-44
2022/03/24 10:33:27;;;;;;;0.40;0.30;;;;;;;;;;5033158;28;20029;-44
2022/03/24 10:36:15;;;;;;;0.77;0.50;;;;;;;;;;5015245;28;20022;-44
2022/03/24 10:38:43;;;;;;;1.83;0.88;;;;;;;;;;5032864;28;20040;-44
2022/03/24 10:41:14;;;;;;;1.10;0.60;;;;;;;;;;5033021;28;20509;-44
2022/03/24 10:43:42;;;;;;;1.42;0.60;;;;;;;;;;5032971;28;20029;-44
2022/03/24 10:46:22;;;;;;;21.92;1.50;;;;;;;;;;5018312;28;20034;-42
2022/03/24 10:48:50;;;;;;;7.93;0.73;;;;;;;;;;5014430;28;20032;-43
2022/03/24 10:51:26;;;;;;;16.40;1.05;;;;;;;;;;5011163;28;20041;-44
2022/03/24 10:54:10;;;;;;;7.38;0.82;;;;;;;;;;5012342;28;20029;-43
2022/03/24 10:56:43;;;;;;;4.60;0.90;;;;;;;;;;5023283;28;20037;-42
2022/03/24 10:59:10;;;;;;;4.88;0.98;;;;;;;;;;5031772;28;20039;-44
2022/03/24 11:01:37;;;;;;;4.90;0.70;;;;;;;;;;5030828;28;20028;-43
2022/03/24 11:04:04;;;;;;;1.27;0.60;;;;;;;;;;5031164;28;20026;-42
2022/03/24 11:06:31;;;;;;;6.22;0.80;;;;;;;;;;5032208;28;20473;-43
2022/03/24 11:08:59;;;;;;;1.63;0.45;;;;;;;;;;5031645;28;20025;-43
2022/03/24 11:11:27;;;;;;;2.28;0.57;;;;;;;;;;5031290;28;20045;-41
2022/03/24 11:13:55;;;;;;;2.45;0.60;;;;;;;;;;5031786;28;20045;-42
2022/03/24 11:16:24;;;;;;;4.53;0.70;;;;;;;;;;5031660;28;20108;-41
2022/03/24 11:18:52;;;;;;;4.13;0.75;;;;;;;;;;5031688;28;20106;-43
2022/03/24 11:21:23;;;;;;;1.15;0.68;;;;;;;;;;5031539;28;20431;-44
2022/03/24 11:23:54;;;;;;;2.08;0.60;;;;;;;;;;5030982;28;20671;-44
2022/03/24 11:26:21;;;;;;;2.25;0.55;;;;;;;;;;5031519;28;20052;-45
2022/03/24 11:28:50;;;;;;;0.85;0.50;;;;;;;;;;5031248;28;20149;-42
2022/03/24 11:31:18;;;;;;;1.83;0.60;;;;;;;;;;5031004;28;20049;-44
2022/03/24 11:33:47;;;;;;;1.77;0.55;;;;;;;;;;5012324;28;20758;-43
2022/03/24 11:36:14;;;;;;;2.10;0.57;;;;;;;;;;5013882;28;20450;-46
2022/03/24 11:38:42;;;;;;;1.42;0.55;;;;;;;;;;5029891;28;20036;-43
2022/03/24 11:41:13;;;;;;;0.85;0.35;;;;;;;;;;5011250;28;20108;-43
2022/03/24 11:43:45;;;;;;;2.50;0.50;;;;;;;;;;5011315;28;20112;-42
2022/03/24 11:46:17;;;;;;;3.10;0.30;;;;;;;;;;5011607;28;20037;-46
2022/03/24 11:48:45;;;;;;;1.13;0.43;;;;;;;;;;5011789;28;20044;-48
2022/03/24 11:51:12;;;;;;;1.00;0.40;;;;;;;;;;5011693;28;20077;-42
2022/03/24 11:53:39;;;;;;;4.78;0.60;;;;;;;;;;5011682;28;20064;-46
2022/03/24 11:56:06;;;;;;;4.70;0.40;;;;;;;;;;5011096;28;20430;-43
2022/03/24 11:58:35;;;;;;;3.28;0.40;;;;;;;;;;5010957;28;20502;-45
2022/03/24 12:01:21;;;;;;;0.50;0.40;;;;;;;;;;5011811;28;20514;-43
2022/03/24 12:03:51;;;;;;;1.95;0.30;;;;;;;;;;5011810;28;20033;-46
2022/03/24 12:06:19;;;;;;;2.20;0.43;;;;;;;;;;5010766;28;20110;-44
2022/03/24 12:08:46;;;;;;;1.35;0.50;;;;;;;;;;5011447;28;20034;-45
2022/03/24 12:11:31;;;;;;;1.08;0.50;;;;;;;;;;5011118;28;20073;-47
2022/03/24 12:14:01;;;;;;;1.08;0.40;;;;;;;;;;5013060;28;20109;-47
2022/03/24 12:16:29;;;;;;;0.63;0.40;;;;;;;;;;5014362;28;20544;-46
2022/03/24 12:18:56;;;;;;;1.58;0.50;;;;;;;;;;5015714;28;20368;-42
2022/03/24 12:21:27;;;;;;;2.47;0.40;;;;;;;;;;5024433;28;20048;-43
2022/03/24 12:24:03;;;;;;;1.73;0.50;;;;;;;;;;5025893;28;20626;-42
2022/03/24 12:26:31;;;;;;;1.02;0.43;;;;;;;;;;5004443;28;20026;-41
2022/03/24 12:29:27;;;;;;;0.55;0.30;;;;;;;;;;5022387;28;20160;-42
2022/03/24 12:32:02;;;;;;;0.77;0.38;;;;;;;;;;5007697;28;20049;-41
2022/03/24 12:34:47;;;;;;;1.17;0.32;;;;;;;;;;5023320;28;20026;-41
2022/03/24 12:37:24;;;;;;;0.90;0.30;;;;;;;;;;5023530;28;20034;-41
2022/03/24 12:40:10;;;;;;;1.00;0.40;;;;;;;;;;5023626;28;20030;-43
2022/03/24 12:42:45;;;;;;;1.90;0.40;;;;;;;;;;5025367;28;20068;-43
2022/03/24 12:45:18;;;;;;;2.97;0.40;;;;;;;;;;5023399;28;20034;-43
2022/03/24 12:47:47;;;;;;;1.63;0.40;;;;;;;;;;5022179;28;20037;-43
2022/03/24 12:50:20;;;;;;;3.25;0.45;;;;;;;;;;5024177;28;20029;-46
2022/03/24 12:52:51;;;;;;;2.85;0.30;;;;;;;;;;5024941;28;20041;-47
2022/03/24 12:55:26;;;;;;;2.10;0.40;;;;;;;;;;5024897;28;20033;-47
2022/03/24 12:57:56;;;;;;;1.23;0.30;;;;;;;;;;5031586;28;20387;-43
2022/03/24 13:00:26;;;;;;;0.57;0.32;;;;;;;;;;5033994;28;20155;-44
2022/03/24 13:02:54;;;;;;;1.77;0.30;;;;;;;;;;5034149;28;20038;-47
2022/03/24 13:05:31;;;;;;;2.40;0.40;;;;;;;;;;5034133;28;20041;-42
2022/03/24 13:07:58;;;;;;;2.60;0.30;;;;;;;;;;5033970;28;20029;-43
2022/03/24 13:10:26;;;;;;;2.47;0.40;;;;;;;;;;5032966;28;20037;-45
2022/03/24 13:12:55;;;;;;;1.25;0.43;;;;;;;;;;5024220;28;20112;-42
2022/03/24 13:15:22;;;;;;;2.20;0.38;;;;;;;;;;5014135;28;20030;-46
2022/03/24 13:17:50;;;;;;;3.10;0.57;;;;;;;;;;5026067;28;20087;-42
2022/03/24 13:20:21;;;;;;;2.88;0.30;;;;;;;;;;5033127;28;20124;-42
2022/03/24 13:22:49;;;;;;;0.82;0.30;;;;;;;;;;5015425;28;20041;-41
2022/03/24 13:25:24;;;;;;;3.03;0.50;;;;;;;;;;5032997;28;20041;-44
2022/03/24 13:27:54;;;;;;;0.93;0.22;;;;;;;;;;5033696;28;20045;-45
2022/03/24 13:30:25;;;;;;;0.40;0.22;;;;;;;;;;5032574;28;20054;-47
2022/03/24 13:32:53;;;;;;;1.27;0.40;;;;;;;;;;5024079;28;20041;-45
2022/03/24 13:35:22;;;;;;;1.70;0.40;;;;;;;;;;5021276;28;20030;-45
2022/03/24 13:37:57;;;;;;;2.63;0.40;;;;;;;;;;5021581;28;20029;-46
2022/03/24 13:40:26;;;;;;;1.20;0.32;;;;;;;;;;5021815;28;20112;-46
2022/03/24 13:42:54;;;;;;;1.92;0.47;;;;;;;;;;5020474;28;20044;-45
2022/03/24 13:45:22;;;;;;;2.75;0.40;;;;;;;;;;5004925;28;20044;-47
2022/03/24 13:47:50;;;;;;;0.70;0.20;;;;;;;;;;5028579;28;20485;-44
2022/03/24 13:50:18;;;;;;;1.98;0.40;;;;;;;;;;5033063;28;20117;-47
2022/03/24 13:52:48;;;;;;;1.40;0.43;;;;;;;;;;5030315;28;20029;-46
2022/03/24 13:55:21;;;;;;;3.80;0.40;;;;;;;;;;5022631;28;20037;-41
2022/03/24 13:57:50;;;;;;;2.20;0.50;;;;;;;;;;5020777;28;20033;-44
2022/03/24 14:00:26;;;;;;;2.92;0.40;;;;;;;;;;5017703;28;20022;-44
2022/03/24 14:03:02;;;;;;;3.83;0.50;;;;;;;;;;5024063;28;20033;-47
2022/03/24 14:05:47;;;;;;;1.27;0.50;;;;;;;;;;5032602;28;20442;-41
2022/03/24 14:08:19;;;;;;;1.90;0.47;;;;;;;;;;5032010;28;20029;-41
2022/03/24 14:10:51;;;;;;;9.73;0.50;;;;;;;;;;5032137;28;20095;-44
2022/03/24 14:13:19;;;;;;;2.42;0.47;;;;;;;;;;5031559;28;20284;-41
2022/03/24 14:15:46;;;;;;;2.63;0.38;;;;;;;;;;5032101;28;20116;-46
2022/03/24 14:18:18;;;;;;;2.75;0.52;;;;;;;;;;5032037;28;20030;-41
2022/03/24 14:20:50;;;;;;;2.15;0.50;;;;;;;;;;5032169;28;20037;-45
2022/03/24 14:23:26;;;;;;;5.80;0.50;;;;;;;;;;5028358;28;20052;-46
2022/03/24 14:25:53;;;;;;;3.45;0.47;;;;;;;;;;5012562;28;20181;-41
2022/03/24 14:28:32;;;;;;;6.80;0.63;;;;;;;;;;5012355;28;20034;-42
2022/03/24 14:30:59;;;;;;;3.08;0.60;;;;;;;;;;5031566;28;20080;-44
2022/03/24 14:33:28;;;;;;;4.43;0.68;;;;;;;;;;5032327;28;20064;-43
2022/03/24 14:36:02;;;;;;;1.65;0.60;;;;;;;;;;5031092;28;20040;-41
2022/03/24 14:38:28;;;;;;;1.98;0.60;;;;;;;;;;5030364;28;20029;-39
2022/03/24 14:40:55;;;;;;;2.35;0.45;;;;;;;;;;5031430;28;20502;-41
2022/03/24 14:43:48;;;;;;;17.05;1.02;;;;;;;;;;5031308;28;20033;-40
2022/03/24 14:46:35;;;;;;;1.52;0.40;;;;;;;;;;4931086;29;20051;-41
2022/03/24 14:52:30;;;;;;;5.32;0.50;;;;;;;;;;4929922;29;20666;-42
2022/03/24 14:55:03;;;;;;;7.78;0.80;;;;;;;;;;4931093;29;20051;-45